Carl Junction, MO

3:10 AM CST on February 08, 2016 (GMT -0600)
Joplin Regional | | Change Station
CLOSE
Current Station
Airport
Location: Joplin,
Elevation: 981 ft
Nearby Weather Stations
Active Advisory: Wind Advisory

Elev 981 ft 37.15 °N, 94.50 °W | Updated 17 minutes ago

Clear
Clear
36 °F
Feels Like 26 °F
N
17
Wind Variable Wind from WNW
Gusts 26 mph

Today
High -- | Low -- °F
--% Chance of Precip.
Yesterday
High -- | Low -- °F
Precip. -- in
Pressure 30.06 in
Visibility 10.0 miles
Clouds Clear
Windchill 26 °F
Dew Point 21 °F
Humidity 55%
Rainfall 0.00 in
Snow Depth Not available.
7:14 AM 5:49 PM
Waning Crescent, 0% visible
METAR KJLN 080853Z AUTO 29015G23KT 10SM CLR 02/M06 A3005 RMK AO2 SLP178 T00221061 56010
Pressure 30.06 in
Visibility 10.0 miles
Clouds Clear
Windchill 26 °F
Dew Point 21 °F
Humidity 55%
Rainfall 0.00 in
Snow Depth Not available.
7:14 AM 5:49 PM
Waning Crescent, 0% visible
METAR KJLN 080853Z AUTO 29015G23KT 10SM CLR 02/M06 A3005 RMK AO2 SLP178 T00221061 56010

10-Day Weather Forecast

Almanac

Astronomy

Feb. 08, 2016 Rise Set
Actual Time
Civil Twilight
Nautical Twilight
Astronomical Twilight
Moon
Length of Visible Light
Length of Day
Tomorrow will be .
, % of the Moon is Illuminated

Today's Extremes

State Highs State Lows

Community

WunderPhotos

Upload Photos

1,891,412 photos uploaded!

WunderBlog® & News

Nearby

Air Quality

  Air Quality AQ Index Pollutant
Not available.

Snow Depth

Station Depth Elevation

Earthquake Activity

City Distance Mag. Time & Date
Minimum magnitude displayed is 2.5.

Coastal Water Temperatures

Place Temperature

Stations

Nearby Weather Stations

Station Location Temp. Windchill Dew Point Humidity Wind Precip. Elev Updated Type
                   

Watches & Warnings

Wind Advisory
Issued: 12:35 AM CST Feb. 8, 2016 – National Weather Service

... Wind Advisory remains in effect from 8 am this morning to 6 PM
CST this evening...

* timing... winds will increase early Monday morning and continue
into Monday afternoon.

* Winds... northwest winds of 25 to 35 mph with gusts of 40 to 45
mph are expected.

* Impacts... strong Crosswinds on area highways will impact
travel... especially for high profile vehicles.

Precautionary/preparedness actions...

A Wind Advisory means that winds of 35 mph are expected. Winds
this strong can make driving difficult... especially for high
profile vehicles. Use extra caution.



Foster